createdAt,value
2018-02-24T00:00:56.935Z,32.80
2018-02-24T00:03:27.927Z,33.88
2018-02-24T00:05:58.909Z,33.17
2018-02-24T00:08:29.899Z,30.40
2018-02-24T00:11:00.906Z,31.48
2018-02-24T00:13:31.910Z,31.70
2018-02-24T00:16:02.930Z,29.35
2018-02-24T00:18:33.905Z,32.40
2018-02-24T00:21:04.930Z,29.40
2018-02-24T00:23:35.946Z,33.72
2018-02-24T00:26:06.921Z,30.25
2018-02-24T00:28:37.878Z,27.80
2018-02-24T00:31:08.884Z,28.60
2018-02-24T00:33:39.892Z,31.10
2018-02-24T00:36:10.898Z,33.28
2018-02-24T00:38:41.904Z,32.78
2018-02-24T00:41:12.889Z,30.25
2018-02-24T00:43:43.898Z,32.28
2018-02-24T00:46:14.872Z,30.02
2018-02-24T00:48:45.885Z,32.33
2018-02-24T00:51:16.937Z,32.70
2018-02-24T00:53:47.925Z,37.30
2018-02-24T00:56:18.953Z,33.47
2018-02-24T00:58:49.958Z,28.92
2018-02-24T01:01:20.991Z,35.13
2018-02-24T01:03:51.980Z,35.20
2018-02-24T01:06:22.988Z,32.10
2018-02-24T01:08:53.982Z,31.60
2018-02-24T01:11:24.990Z,31.12
2018-02-24T01:13:56.021Z,30.10
2018-02-24T01:16:27.019Z,32.13
2018-02-24T01:18:58.033Z,32.03
2018-02-24T01:21:29.013Z,34.42
2018-02-24T01:24:00.071Z,31.47
2018-02-24T01:26:31.045Z,32.55
2018-02-24T01:29:02.059Z,33.73
2018-02-24T01:31:33.091Z,30.75
2018-02-24T01:34:04.070Z,37.70
2018-02-24T01:36:35.103Z,34.67
2018-02-24T01:39:06.082Z,39.03
2018-02-24T01:41:37.082Z,37.80
2018-02-24T01:44:08.020Z,32.17
2018-02-24T01:46:39.025Z,38.20
2018-02-24T01:49:10.035Z,31.55
2018-02-24T01:51:41.032Z,39.88
2018-02-24T01:54:12.030Z,34.13
2018-02-24T01:56:43.024Z,35.13
2018-02-24T01:59:14.061Z,34.72
2018-02-24T02:01:45.056Z,33.15
2018-02-24T02:04:16.051Z,37.55
2018-02-24T02:06:47.051Z,35.20
2018-02-24T02:09:18.036Z,41.88
2018-02-24T02:11:49.054Z,39.40
2018-02-24T02:14:20.051Z,41.22
2018-02-24T02:16:51.061Z,37.45
2018-02-24T02:19:22.088Z,36.28
2018-02-24T02:21:53.150Z,37.80
2018-02-24T02:24:24.148Z,36.45
2018-02-24T02:26:55.165Z,37.13
2018-02-24T02:29:26.171Z,39.80
2018-02-24T02:31:57.181Z,40.60
2018-02-24T02:34:28.173Z,38.05
2018-02-24T02:36:59.168Z,38.00
2018-02-24T02:39:30.151Z,38.25
2018-02-24T02:42:01.166Z,47.70
2018-02-24T02:44:32.180Z,43.22
2018-02-24T02:47:03.173Z,38.80
2018-02-24T02:49:34.152Z,35.60
2018-02-24T02:52:05.123Z,46.20
2018-02-24T02:54:36.138Z,41.60
2018-02-24T02:57:07.112Z,39.80
2018-02-24T02:59:38.091Z,35.80
2018-02-24T03:02:09.123Z,43.00
2018-02-24T03:04:40.100Z,38.88
2018-02-24T03:07:11.142Z,40.87
2018-02-24T03:09:42.104Z,36.80
2018-02-24T03:12:13.122Z,46.53
2018-02-24T03:14:44.084Z,40.33
2018-02-24T03:17:15.169Z,40.53
2018-02-24T03:19:46.146Z,40.95
2018-02-24T03:22:17.117Z,39.55
2018-02-24T03:24:48.123Z,38.27
2018-02-24T03:27:19.134Z,41.83
2018-02-24T03:29:50.158Z,33.75
2018-02-24T03:32:21.129Z,44.10
2018-02-24T03:34:52.136Z,45.33
2018-02-24T03:37:23.153Z,43.90
2018-02-24T03:39:54.196Z,45.70
2018-02-24T03:42:25.203Z,44.00
2018-02-24T03:44:56.192Z,41.22
2018-02-24T03:47:27.223Z,41.33
2018-02-24T03:49:58.213Z,41.10
2018-02-24T03:52:29.228Z,39.13
2018-02-24T03:55:00.198Z,39.17
2018-02-24T03:57:31.198Z,39.77
2018-02-24T04:00:02.239Z,46.37
2018-02-24T04:02:33.240Z,45.50
2018-02-24T04:05:04.324Z,41.05
2018-02-24T04:07:35.348Z,48.72
2018-02-24T04:10:06.344Z,41.50
2018-02-24T04:12:37.337Z,42.83
2018-02-24T04:15:08.396Z,45.63
2018-02-24T04:17:39.402Z,40.97
2018-02-24T04:20:10.408Z,41.45
2018-02-24T04:22:41.386Z,40.97
2018-02-24T04:25:12.412Z,45.93
2018-02-24T04:27:43.433Z,42.67
2018-02-24T04:30:14.453Z,40.12
2018-02-24T04:32:45.493Z,41.00
2018-02-24T04:35:16.479Z,41.50
2018-02-24T04:37:47.509Z,46.83
2018-02-24T04:40:18.549Z,46.40
2018-02-24T04:42:49.527Z,41.20
2018-02-24T04:45:20.529Z,39.57
2018-02-24T04:47:51.533Z,35.88
2018-02-24T04:50:22.545Z,41.45
2018-02-24T04:52:53.500Z,35.65
2018-02-24T04:55:24.547Z,36.80
2018-02-24T04:57:55.618Z,42.72
2018-02-24T05:00:26.600Z,38.25
2018-02-24T05:02:57.640Z,35.35
2018-02-24T05:05:28.608Z,43.53
2018-02-24T05:07:59.609Z,34.83
2018-02-24T05:10:30.574Z,38.28
2018-02-24T05:13:01.568Z,41.30
2018-02-24T05:15:32.556Z,33.75
2018-02-24T05:18:03.536Z,37.92
2018-02-24T05:20:34.522Z,37.53
2018-02-24T05:23:05.538Z,35.75
2018-02-24T05:25:36.549Z,30.98
2018-02-24T05:28:07.652Z,39.58
2018-02-24T05:30:38.635Z,36.67
2018-02-24T05:33:09.607Z,38.65
2018-02-24T05:35:40.610Z,40.00
2018-02-24T05:38:11.595Z,38.70
2018-02-24T05:40:42.589Z,41.10
2018-02-24T05:43:13.603Z,39.50
2018-02-24T05:45:44.548Z,34.33
2018-02-24T05:48:15.573Z,41.30
2018-02-24T05:50:46.615Z,35.35
2018-02-24T05:53:17.584Z,36.47
2018-02-24T05:55:48.560Z,45.30
2018-02-24T05:58:19.588Z,36.92
2018-02-24T06:00:50.565Z,37.58
2018-02-24T06:03:21.602Z,35.87
2018-02-24T06:05:52.642Z,37.60
2018-02-24T06:08:23.620Z,39.28
2018-02-24T06:10:54.612Z,36.33
2018-02-24T06:13:25.659Z,35.70
2018-02-24T06:15:56.622Z,31.20
2018-02-24T06:18:27.619Z,40.70
2018-02-24T06:20:58.613Z,33.00
2018-02-24T06:23:29.580Z,40.58
2018-02-24T06:26:00.596Z,37.03
2018-02-24T06:28:31.589Z,37.83
2018-02-24T06:31:02.590Z,33.65
2018-02-24T06:33:33.590Z,33.50
2018-02-24T06:36:04.629Z,35.58
2018-02-24T06:38:35.664Z,36.83
2018-02-24T06:41:06.673Z,33.60
2018-02-24T06:43:37.694Z,30.92
2018-02-24T06:46:08.693Z,34.03
2018-02-24T06:48:39.689Z,32.88
2018-02-24T06:51:10.739Z,31.25
2018-02-24T06:53:41.743Z,36.70
2018-02-24T06:56:12.703Z,36.05
2018-02-24T06:58:43.685Z,44.17
2018-02-24T07:01:14.718Z,38.95
2018-02-24T07:03:45.703Z,31.45
2018-02-24T07:06:16.760Z,34.90
2018-02-24T07:08:47.768Z,31.40
2018-02-24T07:11:19.277Z,29.75
2018-02-24T07:13:50.302Z,31.02
2018-02-24T07:16:21.305Z,33.65
2018-02-24T07:18:52.293Z,31.80
2018-02-24T07:21:23.291Z,29.25
2018-02-24T07:23:54.301Z,35.28
2018-02-24T07:26:25.251Z,34.13
2018-02-24T07:28:56.273Z,33.30
2018-02-24T07:31:27.305Z,32.05
2018-02-24T07:33:58.324Z,33.65
2018-02-24T07:36:29.323Z,30.17
2018-02-24T07:39:00.334Z,34.10
2018-02-24T07:41:31.319Z,34.13
2018-02-24T07:44:02.378Z,32.97
2018-02-24T07:46:33.358Z,30.80
2018-02-24T07:49:04.363Z,33.95
2018-02-24T07:51:35.363Z,31.87
2018-02-24T07:54:06.375Z,32.88
2018-02-24T07:56:37.343Z,33.25
2018-02-24T07:59:08.381Z,32.40
2018-02-24T08:01:39.352Z,32.08
2018-02-24T08:04:10.374Z,34.45
2018-02-24T08:06:41.390Z,33.05
2018-02-24T08:09:13.289Z,31.15
2018-02-24T08:11:44.307Z,31.05
2018-02-24T08:14:15.310Z,31.52
2018-02-24T08:16:46.322Z,30.50
2018-02-24T08:19:17.359Z,32.00
2018-02-24T08:21:48.403Z,31.35
2018-02-24T08:24:19.403Z,29.33
2018-02-24T08:26:50.398Z,30.33
2018-02-24T08:29:21.918Z,26.13
2018-02-24T08:31:52.984Z,25.10
2018-02-24T08:34:23.968Z,27.70
2018-02-24T08:36:54.932Z,29.27
2018-02-24T08:39:25.919Z,26.33
2018-02-24T08:41:56.904Z,26.83
2018-02-24T08:44:27.905Z,27.80
2018-02-24T08:46:58.885Z,25.43
2018-02-24T08:49:29.875Z,28.17
2018-02-24T08:52:00.883Z,28.40
2018-02-24T08:54:31.904Z,26.40
2018-02-24T08:57:02.938Z,26.70
2018-02-24T08:59:33.922Z,27.03
2018-02-24T09:02:04.910Z,28.33
2018-02-24T09:04:35.921Z,29.10
2018-02-24T09:07:06.926Z,29.00
2018-02-24T09:09:37.917Z,29.13
2018-02-24T09:12:08.965Z,28.50
2018-02-24T09:14:39.947Z,27.27
2018-02-24T09:17:10.959Z,27.83
2018-02-24T09:19:41.923Z,27.43
2018-02-24T09:22:12.970Z,29.27
2018-02-24T09:24:43.953Z,28.60
2018-02-24T09:27:14.974Z,28.63
2018-02-24T09:29:45.929Z,27.10
2018-02-24T09:32:16.958Z,26.87
2018-02-24T09:34:47.929Z,26.37
2018-02-24T09:37:18.943Z,24.63
2018-02-24T09:39:49.961Z,27.67
2018-02-24T09:42:20.955Z,27.40
2018-02-24T09:44:51.938Z,27.17
2018-02-24T09:47:22.996Z,28.53
2018-02-24T09:49:54.018Z,27.17
2018-02-24T09:52:24.992Z,26.77
2018-02-24T09:54:55.951Z,26.77
2018-02-24T09:57:26.925Z,26.73
2018-02-24T09:59:57.910Z,26.80
2018-02-24T10:02:28.920Z,29.83
2018-02-24T10:04:59.892Z,25.97
2018-02-24T10:07:30.924Z,25.50
2018-02-24T10:10:01.930Z,23.60
2018-02-24T10:12:32.963Z,24.97
2018-02-24T10:15:03.987Z,25.77
2018-02-24T10:17:34.943Z,25.67
2018-02-24T10:20:05.924Z,24.73
2018-02-24T10:22:36.917Z,25.70
2018-02-24T10:25:07.936Z,25.30
2018-02-24T10:27:38.931Z,25.17
2018-02-24T10:30:09.956Z,24.60
2018-02-24T10:32:40.946Z,24.10
2018-02-24T10:35:11.922Z,25.13
2018-02-24T10:37:42.932Z,24.03
2018-02-24T10:40:13.972Z,26.60
2018-02-24T10:42:44.936Z,23.43
2018-02-24T10:45:15.912Z,23.33
2018-02-24T10:47:46.911Z,24.10
2018-02-24T10:50:17.881Z,25.30
2018-02-24T10:52:48.914Z,23.47
2018-02-24T10:55:19.865Z,23.90
2018-02-24T10:57:50.947Z,23.70
2018-02-24T11:00:21.939Z,24.23
2018-02-24T11:02:53.004Z,24.33
2018-02-24T11:05:24.006Z,23.53
2018-02-24T11:07:54.998Z,21.93
2018-02-24T11:10:26.021Z,23.97
2018-02-24T11:12:57.023Z,21.97
2018-02-24T11:15:28.043Z,22.57
2018-02-24T11:17:58.996Z,21.30
2018-02-24T11:20:30.005Z,22.40
2018-02-24T11:23:01.018Z,21.37
2018-02-24T11:25:32.744Z,20.00
2018-02-24T11:28:03.744Z,22.43
2018-02-24T11:30:34.720Z,23.00
2018-02-24T11:33:05.700Z,21.93
2018-02-24T11:35:36.686Z,20.37
2018-02-24T11:38:07.698Z,22.63
2018-02-24T11:40:38.676Z,20.40
2018-02-24T11:43:09.677Z,19.17
2018-02-24T11:45:40.676Z,18.87
2018-02-24T11:48:11.731Z,17.17
2018-02-24T11:50:42.751Z,16.53
2018-02-24T11:53:13.758Z,21.00
2018-02-24T11:55:44.766Z,22.23
2018-02-24T11:58:15.842Z,21.23
2018-02-24T12:00:46.856Z,19.13
2018-02-24T12:03:17.867Z,18.37
2018-02-24T12:05:48.885Z,19.67
2018-02-24T12:08:19.847Z,21.90
2018-02-24T12:10:50.825Z,20.10
2018-02-24T12:13:21.800Z,17.90
2018-02-24T12:15:52.850Z,16.87
2018-02-24T12:18:23.849Z,21.57
2018-02-24T12:20:54.837Z,17.10
2018-02-24T12:23:25.844Z,17.37
2018-02-24T12:25:56.824Z,18.13
2018-02-24T12:28:27.835Z,18.30
2018-02-24T12:30:58.894Z,13.83
2018-02-24T12:33:29.916Z,16.50
2018-02-24T12:36:00.923Z,15.67
2018-02-24T12:38:31.938Z,17.27
2018-02-24T12:41:02.960Z,15.63
2018-02-24T12:43:34.005Z,15.20
2018-02-24T12:46:04.987Z,16.92
2018-02-24T12:48:35.983Z,15.80
2018-02-24T12:51:07.001Z,16.93
2018-02-24T12:53:38.019Z,17.37
2018-02-24T12:56:09.015Z,15.17
2018-02-24T12:58:40.087Z,15.70
2018-02-24T13:01:11.160Z,18.93
2018-02-24T13:03:42.173Z,16.63
2018-02-24T13:06:13.203Z,14.93
2018-02-24T13:08:44.180Z,17.60
2018-02-24T13:11:15.184Z,13.77
2018-02-24T13:13:46.189Z,14.17
2018-02-24T13:16:17.176Z,16.33
2018-02-24T13:18:48.164Z,13.93
2018-02-24T13:21:19.213Z,14.83
2018-02-24T13:23:50.193Z,15.63
2018-02-24T13:26:21.217Z,15.67
2018-02-24T13:28:52.189Z,15.40
2018-02-24T13:31:23.199Z,13.70
2018-02-24T13:33:54.239Z,18.23
2018-02-24T13:36:25.249Z,15.60
2018-02-24T13:38:56.270Z,15.77
2018-02-24T13:41:27.261Z,15.60
2018-02-24T13:43:58.284Z,14.13
2018-02-24T13:46:29.262Z,13.13
2018-02-24T13:49:00.256Z,14.73
2018-02-24T13:51:31.303Z,16.53
2018-02-24T13:54:02.334Z,17.03
2018-02-24T13:56:33.340Z,17.40
2018-02-24T13:59:04.337Z,14.87
2018-02-24T14:01:35.339Z,16.90
2018-02-24T14:04:06.387Z,14.20
2018-02-24T14:06:37.363Z,16.93
2018-02-24T14:09:08.502Z,11.13
2018-02-24T14:11:39.488Z,15.83
2018-02-24T14:14:10.572Z,15.20
2018-02-24T14:16:41.600Z,14.93
2018-02-24T14:19:12.618Z,15.00
2018-02-24T14:21:43.638Z,14.50
2018-02-24T14:24:14.622Z,13.03
2018-02-24T14:26:45.669Z,13.13
2018-02-24T14:29:16.627Z,14.13
2018-02-24T14:31:47.677Z,14.07
2018-02-24T14:34:18.649Z,15.27
2018-02-24T14:36:49.716Z,10.83
2018-02-24T14:39:20.726Z,13.90
2018-02-24T14:41:51.726Z,17.03
2018-02-24T14:44:22.755Z,15.13
2018-02-24T14:46:53.769Z,12.70
2018-02-24T14:49:24.748Z,16.03
2018-02-24T14:51:55.718Z,12.70
2018-02-24T14:54:26.710Z,13.33
2018-02-24T14:56:57.804Z,11.87
2018-02-24T14:59:28.886Z,14.47
2018-02-24T15:01:59.915Z,12.20
2018-02-24T15:04:30.912Z,13.15
2018-02-24T15:07:01.903Z,14.10
2018-02-24T15:09:32.958Z,13.20
2018-02-24T15:15:00.438Z,14.02
2018-02-24T15:17:31.447Z,12.73
2018-02-24T15:20:02.522Z,13.37
2018-02-24T15:22:33.527Z,14.10
2018-02-24T15:25:04.582Z,12.97
2018-02-24T15:27:35.565Z,12.27
2018-02-24T15:30:06.612Z,10.20
2018-02-24T15:32:37.675Z,12.60
2018-02-24T15:35:08.721Z,11.65
2018-02-24T15:37:39.766Z,9.15
2018-02-24T15:40:10.729Z,10.45
2018-02-24T15:42:41.754Z,11.07
2018-02-24T15:45:12.810Z,10.93
2018-02-24T15:47:43.820Z,10.30
2018-02-24T15:50:14.843Z,9.68
2018-02-24T15:52:45.884Z,10.80
2018-02-24T15:55:16.895Z,9.00
2018-02-24T15:57:47.906Z,11.68
2018-02-24T16:00:18.907Z,8.27
2018-02-24T16:02:49.925Z,11.40
2018-02-24T16:05:20.912Z,9.80
2018-02-24T16:07:51.935Z,10.27
2018-02-24T16:10:23.007Z,10.25
2018-02-24T16:12:54.082Z,9.93
2018-02-24T16:15:25.049Z,13.20
2018-02-24T16:18:03.209Z,10.67
2018-02-24T16:20:34.209Z,10.02
2018-02-24T16:23:05.217Z,9.82
2018-02-24T16:25:36.188Z,9.00
2018-02-24T16:28:07.197Z,8.47
2018-02-24T16:30:38.214Z,8.93
2018-02-24T16:33:10.047Z,9.82
2018-02-24T16:35:41.038Z,12.63
2018-02-24T16:38:12.016Z,8.57
2018-02-24T16:40:42.987Z,10.23
2018-02-24T16:43:13.971Z,8.50
2018-02-24T16:45:44.939Z,11.07
2018-02-24T16:48:16.975Z,12.13
2018-02-24T16:50:47.954Z,8.27
2018-02-24T16:53:18.969Z,9.17
2018-02-24T16:55:49.939Z,9.43
2018-02-24T16:58:20.976Z,8.57
2018-02-24T17:00:51.950Z,7.60
2018-02-24T17:03:22.940Z,11.67
2018-02-24T17:05:53.953Z,12.37
2018-02-24T17:08:24.982Z,6.82
2018-02-24T17:10:55.976Z,9.07
2018-02-24T17:13:26.936Z,10.05
2018-02-24T17:15:57.995Z,8.50
2018-02-24T17:18:29.005Z,7.47
2018-02-24T17:21:00.050Z,9.20
2018-02-24T17:23:31.036Z,9.00
2018-02-24T17:26:02.041Z,9.70
2018-02-24T17:31:29.096Z,9.02
2018-02-24T17:34:00.111Z,8.57
2018-02-24T17:36:31.142Z,15.20
2018-02-24T17:39:02.199Z,8.50
2018-02-24T17:41:33.148Z,8.95
2018-02-24T17:44:04.139Z,10.77
2018-02-24T17:46:35.139Z,7.85
2018-02-24T17:49:06.099Z,10.80
2018-02-24T17:51:37.125Z,10.03
2018-02-24T17:54:08.190Z,8.88
2018-02-24T17:56:39.214Z,10.50
2018-02-24T17:59:10.224Z,9.38
2018-02-24T18:01:48.454Z,11.38
2018-02-24T18:04:19.503Z,9.40
2018-02-24T18:06:50.550Z,10.30
2018-02-24T18:09:21.579Z,11.07
2018-02-24T18:11:52.641Z,8.05
2018-02-24T18:14:23.613Z,8.63
2018-02-24T18:16:54.604Z,9.53
2018-02-24T18:19:25.609Z,10.93
2018-02-24T18:21:56.588Z,11.18
2018-02-24T18:24:27.660Z,10.53
2018-02-24T18:26:58.722Z,8.95
2018-02-24T18:29:29.675Z,11.12
2018-02-24T18:32:00.644Z,12.53
2018-02-24T18:34:31.631Z,9.37
2018-02-24T18:37:02.716Z,10.60
2018-02-24T18:39:33.700Z,11.15
2018-02-24T18:42:04.773Z,22.20
2018-02-24T18:44:35.784Z,10.75
2018-02-24T18:47:06.793Z,11.07
2018-02-24T18:49:37.778Z,10.88
2018-02-24T18:52:08.832Z,10.90
2018-02-24T18:54:39.841Z,10.40
2018-02-24T18:57:10.824Z,10.15
2018-02-24T18:59:41.783Z,11.23
2018-02-24T19:02:12.837Z,11.37
2018-02-24T19:04:43.902Z,11.57
2018-02-24T19:07:14.940Z,9.57
2018-02-24T19:09:45.914Z,10.52
2018-02-24T19:12:16.893Z,7.63
2018-02-24T19:14:47.905Z,10.53
2018-02-24T19:17:18.884Z,9.85
2018-02-24T19:19:49.876Z,11.47
2018-02-24T19:22:20.950Z,6.45
2018-02-24T19:24:51.909Z,9.38
2018-02-24T19:27:22.944Z,8.60
2018-02-24T19:29:53.974Z,8.00
2018-02-24T19:32:25.070Z,9.35
2018-02-24T19:34:56.070Z,7.10
2018-02-24T19:37:27.070Z,7.43
2018-02-24T19:39:58.104Z,9.95
2018-02-24T19:42:29.090Z,9.57
2018-02-24T19:45:00.192Z,10.38
2018-02-24T19:47:31.212Z,6.57
2018-02-24T19:50:02.254Z,8.23
2018-02-24T19:52:33.208Z,9.15
2018-02-24T19:55:04.277Z,9.77
2018-02-24T19:57:35.258Z,7.32
2018-02-24T20:00:06.351Z,7.95
2018-02-24T20:02:37.301Z,7.12
2018-02-24T20:05:08.315Z,8.60
2018-02-24T20:07:39.284Z,7.75
2018-02-24T20:10:10.348Z,6.23
2018-02-24T20:12:41.403Z,9.55
2018-02-24T20:15:12.431Z,6.40
2018-02-24T20:17:43.416Z,10.07
2018-02-24T20:20:14.456Z,9.50
2018-02-24T20:22:45.421Z,8.32
2018-02-24T20:25:16.411Z,8.00
2018-02-24T20:27:47.424Z,7.20
2018-02-24T20:30:18.427Z,8.98
2018-02-24T20:32:49.454Z,7.05
2018-02-24T20:35:20.467Z,6.32
2018-02-24T20:37:51.561Z,10.32
2018-02-24T20:40:22.546Z,5.22
2018-02-24T20:42:53.537Z,6.93
2018-02-24T20:45:24.549Z,6.75
2018-02-24T20:47:55.539Z,8.75
2018-02-24T20:50:26.527Z,7.00
2018-02-24T20:52:57.562Z,6.93
2018-02-24T20:55:28.640Z,6.43
2018-02-24T20:57:59.640Z,5.30
2018-02-24T21:00:30.688Z,8.48
2018-02-24T21:03:01.801Z,7.53
2018-02-24T21:05:32.792Z,8.02
2018-02-24T21:08:03.791Z,5.20
2018-02-24T21:10:34.771Z,6.55
2018-02-24T21:13:05.797Z,7.28
2018-02-24T21:15:36.823Z,7.95
2018-02-24T21:18:07.764Z,8.95
2018-02-24T21:20:38.789Z,7.13
2018-02-24T21:23:09.792Z,7.05
2018-02-24T21:25:41.200Z,5.53
2018-02-24T21:28:12.268Z,7.57
2018-02-24T21:30:43.248Z,6.55
2018-02-24T21:33:14.234Z,6.82
2018-02-24T21:35:45.253Z,6.07
2018-02-24T21:38:16.260Z,7.22
2018-02-24T21:40:47.269Z,8.27
2018-02-24T21:43:18.245Z,7.80
2018-02-24T21:45:49.280Z,9.10
2018-02-24T21:48:20.267Z,9.57
2018-02-24T21:50:51.293Z,6.78
2018-02-24T21:53:22.356Z,6.12
2018-02-24T21:55:53.346Z,6.93
2018-02-24T21:58:24.360Z,6.70
2018-02-24T22:00:55.377Z,8.18
2018-02-24T22:03:26.422Z,6.15
2018-02-24T22:05:57.392Z,7.87
2018-02-24T22:08:35.277Z,7.57
2018-02-24T22:11:06.276Z,6.22
2018-02-24T22:13:37.289Z,6.55
2018-02-24T22:16:08.288Z,8.63
2018-02-24T22:18:39.332Z,7.57
2018-02-24T22:21:10.360Z,9.10
2018-02-24T22:23:41.345Z,7.75
2018-02-24T22:26:12.356Z,6.18
2018-02-24T22:28:43.396Z,7.45
2018-02-24T22:31:14.398Z,7.93
2018-02-24T22:33:45.376Z,7.43
2018-02-24T22:36:16.443Z,6.25
2018-02-24T22:38:47.460Z,7.07
2018-02-24T22:41:18.432Z,8.77
2018-02-24T22:43:49.448Z,8.10
2018-02-24T22:46:20.442Z,9.32
2018-02-24T22:48:57.530Z,7.60
2018-02-24T22:51:28.527Z,7.22
2018-02-24T22:53:59.516Z,10.45
2018-02-24T22:56:30.487Z,14.50
2018-02-24T22:59:01.507Z,8.40
2018-02-24T23:01:32.534Z,8.07
2018-02-24T23:04:03.568Z,7.45
2018-02-24T23:06:34.566Z,7.75
2018-02-24T23:09:05.547Z,8.20
2018-02-24T23:11:36.536Z,6.55
2018-02-24T23:14:07.518Z,8.48
2018-02-24T23:16:38.512Z,9.05
2018-02-24T23:19:09.524Z,7.82
2018-02-24T23:21:40.504Z,7.95
2018-02-24T23:24:11.512Z,9.30
2018-02-24T23:26:42.504Z,8.70
2018-02-24T23:29:13.538Z,6.32
2018-02-24T23:31:44.520Z,10.00
2018-02-24T23:34:15.582Z,8.25
2018-02-24T23:36:46.566Z,6.78
2018-02-24T23:39:17.587Z,9.38
2018-02-24T23:41:48.558Z,7.65
2018-02-24T23:44:19.567Z,6.53
2018-02-24T23:46:50.539Z,9.95
2018-02-24T23:49:21.540Z,7.67
2018-02-24T23:51:52.576Z,7.53
2018-02-24T23:54:23.550Z,9.25
2018-02-24T23:56:54.538Z,7.90
2018-02-24T23:59:25.492Z,11.90
